Forside
METAR-TAF:

METAR-TAF

Lufthavne :

Grove, Oklahoma, USA

Breddekreds: 36-36-19N, længdekreds: 094-44-19W, højde: 254 m

Aktuelle vejr

Denne rapport blev lavet for 15 minutter siden, kl. 23:35 UTC
Vind stille
Temperatur 0°C
Fugtighed 59%
Tryk 1028 hPa
Sigt: 16.1 km
skyfri

METAR: KGMJ 142335Z AUTO 00000KT 10SM CLR 00/M07 A3036 RMK AO2

Tid: 17:50 (23:50 UTC)


TAF: fraværende

Vejrobservationer og prognoser fra mere end 4000 lufthavne (METAR og TAF).

De gule og røde prikker repræsenterer de meteorologiske stationer.

Flyt musen over at se navnet på stationen.

Så klik over at se vejr observationer og prognoser.

At skifte det kort: Klik på de grønne knapper med et sort kors for at zoome ind; på den grønne knap med en bindestreg for at zoome ud; eller på de grønne pile for tilstødende kort.


METAR-TAF: